createdAt,value
2023-03-02T00:01:43.559Z,102074.25
2023-03-02T00:04:27.304Z,102078.97
2023-03-02T00:06:58.341Z,102075.38
2023-03-02T00:09:24.790Z,102075.53
2023-03-02T00:11:51.622Z,102076.56
2023-03-02T00:14:18.015Z,102067.19
2023-03-02T00:16:44.380Z,102074.69
2023-03-02T00:19:10.784Z,102073.03
2023-03-02T00:21:37.181Z,102073.50
2023-03-02T00:24:04.494Z,102075.47
2023-03-02T00:26:34.620Z,102075.47
2023-03-02T00:29:01.644Z,102069.38
2023-03-02T00:31:28.080Z,102071.59
2023-03-02T00:33:54.669Z,102084.56
2023-03-02T00:36:22.121Z,102084.06
2023-03-02T00:38:48.550Z,102076.09
2023-03-02T00:41:16.355Z,102074.44
2023-03-02T00:43:43.005Z,102073.84
2023-03-02T00:46:14.064Z,102062.03
2023-03-02T00:48:40.822Z,102065.50
2023-03-02T00:51:07.599Z,102070.94
2023-03-02T00:53:35.306Z,102071.22
2023-03-02T00:56:03.037Z,102072.91
2023-03-02T00:58:30.317Z,102069.38
2023-03-02T01:00:57.551Z,102072.09
2023-03-02T01:03:24.080Z,102072.38
2023-03-02T01:05:55.242Z,102071.97
2023-03-02T01:08:23.413Z,102071.69
2023-03-02T01:10:49.862Z,102073.38
2023-03-02T01:13:16.225Z,102063.69
2023-03-02T01:15:42.717Z,102064.38
2023-03-02T01:18:09.432Z,102062.00
2023-03-02T01:20:36.548Z,102058.34
2023-03-02T01:23:02.912Z,102051.03
2023-03-02T01:25:29.335Z,102046.81
2023-03-02T01:27:55.700Z,102055.72
2023-03-02T01:30:22.163Z,102050.91
2023-03-02T01:32:48.550Z,102045.53
2023-03-02T01:35:14.939Z,102041.16
2023-03-02T01:37:41.382Z,102045.06
2023-03-02T01:40:09.142Z,102045.97
2023-03-02T01:42:40.357Z,102050.63
2023-03-02T01:45:43.756Z,102042.91
2023-03-02T01:48:12.389Z,102039.31
2023-03-02T01:50:39.502Z,102044.00
2023-03-02T01:53:06.501Z,102032.22
2023-03-02T01:55:36.704Z,102032.25
2023-03-02T01:58:05.250Z,102030.25
2023-03-02T02:00:38.572Z,102023.28
2023-03-02T02:03:10.665Z,102014.69
2023-03-02T02:05:39.072Z,102018.06
2023-03-02T02:08:06.454Z,102014.78
2023-03-02T02:10:34.112Z,102007.22
2023-03-02T02:13:01.192Z,102016.59
2023-03-02T02:15:27.668Z,102013.44
2023-03-02T02:17:55.596Z,102012.03
2023-03-02T02:20:33.963Z,102018.69
2023-03-02T02:23:21.376Z,102014.75
2023-03-02T02:25:53.005Z,102013.66
2023-03-02T02:28:23.241Z,102022.13
2023-03-02T02:30:56.136Z,102020.31
2023-03-02T02:33:24.489Z,102016.66
2023-03-02T02:35:56.934Z,102008.41
2023-03-02T02:38:24.911Z,102017.19
2023-03-02T02:41:02.778Z,102009.34
2023-03-02T02:43:31.183Z,102017.59
2023-03-02T02:45:58.959Z,102011.03
2023-03-02T02:48:30.970Z,102011.94
2023-03-02T02:51:02.934Z,102007.56
2023-03-02T02:53:42.616Z,102005.75
2023-03-02T02:56:10.425Z,102008.25
2023-03-02T02:58:51.095Z,102012.25
2023-03-02T03:01:20.108Z,102002.72
2023-03-02T03:03:51.700Z,102007.28
2023-03-02T03:06:21.100Z,102008.34
2023-03-02T03:08:47.418Z,101999.28
2023-03-02T03:11:15.878Z,102002.13
2023-03-02T03:13:43.614Z,102012.56
2023-03-02T03:16:13.733Z,102014.44
2023-03-02T03:18:43.329Z,102003.09
2023-03-02T03:21:09.692Z,101996.44
2023-03-02T03:23:38.239Z,102002.34
2023-03-02T03:26:07.762Z,101998.69
2023-03-02T03:28:35.660Z,101998.34
2023-03-02T03:31:02.461Z,101999.69
2023-03-02T03:33:28.915Z,102005.44
2023-03-02T03:35:55.314Z,102003.88
2023-03-02T03:38:21.781Z,102004.13
2023-03-02T03:40:48.176Z,102003.63
2023-03-02T03:43:15.189Z,102002.81
2023-03-02T03:45:41.658Z,102002.38
2023-03-02T03:48:08.025Z,102005.03
2023-03-02T03:50:34.387Z,102003.53
2023-03-02T03:53:03.412Z,101993.84
2023-03-02T03:55:30.176Z,102002.94
2023-03-02T03:57:56.532Z,102005.03
2023-03-02T04:00:23.245Z,102007.44
2023-03-02T04:02:50.598Z,101999.00
2023-03-02T04:05:17.622Z,101996.50
2023-03-02T04:07:44.023Z,101996.91
2023-03-02T04:10:12.242Z,101991.41
2023-03-02T04:12:40.814Z,101987.94
2023-03-02T04:15:10.091Z,101982.31
2023-03-02T04:17:36.473Z,101986.06
2023-03-02T04:20:07.616Z,101987.22
2023-03-02T04:22:34.063Z,101988.44
2023-03-02T04:25:00.455Z,101985.72
2023-03-02T04:27:26.836Z,101997.38
2023-03-02T04:29:53.211Z,101992.19
2023-03-02T04:32:19.916Z,101995.81
2023-03-02T04:34:46.294Z,102001.78
2023-03-02T04:37:13.277Z,101998.31
2023-03-02T04:39:39.639Z,102008.25
2023-03-02T04:42:06.043Z,102013.38
2023-03-02T04:44:32.404Z,102017.94
2023-03-02T04:46:58.810Z,102017.88
2023-03-02T04:49:25.222Z,102019.91
2023-03-02T04:51:51.650Z,102027.59
2023-03-02T04:54:24.525Z,102013.50
2023-03-02T04:56:51.587Z,102022.97
2023-03-02T04:59:20.608Z,102017.16
2023-03-02T05:01:47.841Z,102023.38
2023-03-02T05:04:15.193Z,102004.66
2023-03-02T05:06:41.613Z,102007.22
2023-03-02T05:09:08.093Z,102008.75
2023-03-02T05:11:34.766Z,102001.22
2023-03-02T05:14:04.690Z,102004.31
2023-03-02T05:16:33.814Z,101998.47
2023-03-02T05:19:01.353Z,102005.28
2023-03-02T05:21:27.984Z,102008.75
2023-03-02T05:23:54.749Z,102003.44
2023-03-02T05:26:21.132Z,102004.34
2023-03-02T05:28:47.633Z,102009.16
2023-03-02T05:31:19.811Z,102000.53
2023-03-02T05:33:46.176Z,102009.81
2023-03-02T05:36:12.570Z,102005.09
2023-03-02T05:38:38.943Z,101998.72
2023-03-02T05:41:05.431Z,102003.59
2023-03-02T05:43:31.970Z,101997.72
2023-03-02T05:46:00.474Z,102001.53
2023-03-02T05:48:29.187Z,102005.19
2023-03-02T05:50:55.874Z,102002.81
2023-03-02T05:53:22.368Z,102005.81
2023-03-02T05:55:49.189Z,102001.78
2023-03-02T05:58:17.738Z,101999.16
2023-03-02T06:00:44.991Z,102005.19
2023-03-02T06:03:11.717Z,102006.16
2023-03-02T06:05:38.354Z,102011.66
2023-03-02T06:08:05.490Z,102013.88
2023-03-02T06:10:32.599Z,102009.47
2023-03-02T06:12:59.029Z,102021.13
2023-03-02T06:15:25.605Z,102019.91
2023-03-02T06:17:52.029Z,102026.28
2023-03-02T06:20:18.511Z,102028.13
2023-03-02T06:22:46.407Z,102036.41
2023-03-02T06:25:16.244Z,102034.38
2023-03-02T06:27:43.821Z,102032.91
2023-03-02T06:30:14.310Z,102038.03
2023-03-02T06:32:41.309Z,102034.50
2023-03-02T06:35:08.991Z,102028.59
2023-03-02T06:37:35.555Z,102040.94
2023-03-02T06:40:01.991Z,102038.16
2023-03-02T06:42:28.538Z,102034.75
2023-03-02T06:44:55.177Z,102031.75
2023-03-02T06:47:22.463Z,102042.44
2023-03-02T06:49:49.182Z,102040.16
2023-03-02T06:52:15.959Z,102039.88
2023-03-02T06:54:42.553Z,102044.13
2023-03-02T06:57:09.256Z,102039.88
2023-03-02T06:59:35.617Z,102045.13
2023-03-02T07:02:02.042Z,102045.44
2023-03-02T07:04:28.492Z,102038.91
2023-03-02T07:06:55.401Z,102046.47
2023-03-02T07:09:22.280Z,102047.00
2023-03-02T07:11:49.336Z,102045.41
2023-03-02T07:14:15.722Z,102050.41
2023-03-02T07:16:42.278Z,102051.00
2023-03-02T07:19:13.849Z,102047.63
2023-03-02T07:21:40.619Z,102047.25
2023-03-02T07:24:07.508Z,102043.38
2023-03-02T07:26:33.953Z,102043.81
2023-03-02T07:29:00.910Z,102048.56
2023-03-02T07:31:27.705Z,102038.03
2023-03-02T07:33:54.089Z,102039.47
2023-03-02T07:36:20.489Z,102039.56
2023-03-02T07:38:48.678Z,102038.88
2023-03-02T07:41:16.734Z,102043.97
2023-03-02T07:43:43.493Z,102044.94
2023-03-02T07:46:09.875Z,102047.09
2023-03-02T07:48:36.260Z,102053.09
2023-03-02T07:51:04.842Z,102045.50
2023-03-02T07:53:31.842Z,102050.13
2023-03-02T07:55:58.251Z,102049.97
2023-03-02T07:58:24.635Z,102042.31
2023-03-02T08:00:51.037Z,102047.34
2023-03-02T08:03:17.419Z,102042.00
2023-03-02T08:05:43.791Z,102040.31
2023-03-02T08:08:10.174Z,102041.72
2023-03-02T08:10:36.795Z,102044.53
2023-03-02T08:13:04.796Z,102040.91
2023-03-02T08:15:31.174Z,102041.38
2023-03-02T08:17:57.616Z,102047.63
2023-03-02T08:20:24.027Z,102039.75
2023-03-02T08:22:51.744Z,102045.19
2023-03-02T08:25:18.292Z,102040.91
2023-03-02T08:27:45.970Z,102039.75
2023-03-02T08:30:13.329Z,102044.53
2023-03-02T08:32:39.922Z,102040.19
2023-03-02T08:35:06.775Z,102039.56
2023-03-02T08:37:34.434Z,102034.38
2023-03-02T08:40:00.858Z,102029.50
2023-03-02T08:42:27.233Z,102021.59
2023-03-02T08:44:53.609Z,102026.94
2023-03-02T08:47:19.996Z,102027.09
2023-03-02T08:49:47.981Z,102029.75
2023-03-02T08:52:15.248Z,102028.41
2023-03-02T08:54:42.046Z,102032.22
2023-03-02T08:57:11.701Z,102023.75
2023-03-02T08:59:41.140Z,102016.81
2023-03-02T09:02:11.244Z,102015.38
2023-03-02T09:04:38.204Z,102017.56
2023-03-02T09:07:04.636Z,102006.13
2023-03-02T09:09:31.206Z,102003.97
2023-03-02T09:11:57.570Z,102012.25
2023-03-02T09:14:24.832Z,101996.84
2023-03-02T09:16:52.748Z,101993.91
2023-03-02T09:19:19.459Z,101993.22
2023-03-02T09:21:46.112Z,101988.03
2023-03-02T09:24:12.573Z,101982.06
2023-03-02T09:26:39.141Z,101987.59
2023-03-02T09:29:07.081Z,101988.50
2023-03-02T09:31:34.877Z,101989.88
2023-03-02T09:34:01.581Z,101989.19
2023-03-02T09:36:27.977Z,101990.25
2023-03-02T09:38:54.704Z,101989.78
2023-03-02T09:41:21.010Z,101991.25
2023-03-02T09:43:52.887Z,101991.63
2023-03-02T09:46:34.045Z,101995.06
2023-03-02T09:49:12.398Z,102001.16
2023-03-02T09:52:07.304Z,101995.53
2023-03-02T09:54:35.102Z,101999.16
2023-03-02T09:57:01.961Z,102014.03
2023-03-02T09:59:38.128Z,101996.66
2023-03-02T10:02:25.328Z,102001.16
2023-03-02T10:04:54.823Z,102004.38
2023-03-02T10:07:30.926Z,102005.41
2023-03-02T10:10:07.038Z,102002.72
2023-03-02T10:12:52.592Z,102006.00
2023-03-02T10:15:38.487Z,102003.00
2023-03-02T10:18:15.621Z,102009.97
2023-03-02T10:20:53.752Z,102002.78
2023-03-02T10:23:30.305Z,101999.69
2023-03-02T10:26:32.168Z,101997.06
2023-03-02T10:29:10.639Z,101991.91
2023-03-02T10:31:40.479Z,101999.38
2023-03-02T10:34:11.119Z,101994.69
2023-03-02T10:36:40.170Z,101996.81
2023-03-02T10:39:15.146Z,101994.03
2023-03-02T10:41:47.095Z,101994.13
2023-03-02T10:44:25.387Z,101991.56
2023-03-02T10:46:53.762Z,101993.03
2023-03-02T10:49:29.025Z,101995.72
2023-03-02T10:52:01.647Z,101987.41
2023-03-02T10:54:29.991Z,101980.75
2023-03-02T10:57:00.460Z,101990.56
2023-03-02T10:59:43.611Z,101977.81
2023-03-02T11:02:23.081Z,101987.19
2023-03-02T11:04:58.412Z,101974.28
2023-03-02T11:07:27.713Z,101979.16
2023-03-02T11:10:01.979Z,101976.72
2023-03-02T11:12:29.585Z,101975.72
2023-03-02T11:15:19.235Z,101968.66
2023-03-02T11:17:48.895Z,101974.94
2023-03-02T11:20:21.958Z,101980.13
2023-03-02T11:22:57.778Z,101973.16
2023-03-02T11:25:31.766Z,101961.06
2023-03-02T11:28:34.363Z,101956.72
2023-03-02T11:31:05.287Z,101959.97
2023-03-02T11:33:41.421Z,101965.22
2023-03-02T11:36:15.865Z,101960.91
2023-03-02T11:38:54.531Z,101957.97
2023-03-02T11:41:29.736Z,101953.38
2023-03-02T11:44:01.338Z,101947.19
2023-03-02T11:46:32.422Z,101951.69
2023-03-02T11:49:12.516Z,101962.56
2023-03-02T11:51:56.671Z,101955.44
2023-03-02T11:54:36.741Z,101946.44
2023-03-02T11:57:04.072Z,101945.75
2023-03-02T11:59:31.884Z,101935.72
2023-03-02T12:02:00.588Z,101936.50
2023-03-02T12:04:33.735Z,101944.00
2023-03-02T12:07:17.210Z,101937.28
2023-03-02T12:09:43.886Z,101927.22
2023-03-02T12:12:19.120Z,101925.91
2023-03-02T12:14:45.539Z,101930.72
2023-03-02T12:17:27.455Z,101927.03
2023-03-02T12:20:07.512Z,101918.44
2023-03-02T12:22:35.328Z,101903.50
2023-03-02T12:25:27.290Z,101908.63
2023-03-02T12:27:55.000Z,101905.22
2023-03-02T12:30:27.785Z,101902.28
2023-03-02T12:33:17.778Z,101896.00
2023-03-02T12:35:45.369Z,101894.56
2023-03-02T12:38:43.895Z,101891.31
2023-03-02T12:41:31.156Z,101882.94
2023-03-02T12:44:18.463Z,101875.78
2023-03-02T12:46:46.527Z,101875.22
2023-03-02T12:49:27.239Z,101877.78
2023-03-02T12:52:00.829Z,101872.13
2023-03-02T12:54:30.088Z,101876.78
2023-03-02T12:57:26.034Z,101877.50
2023-03-02T12:59:55.828Z,101863.50
2023-03-02T13:02:25.424Z,101866.91
2023-03-02T13:04:57.628Z,101855.25
2023-03-02T13:07:41.880Z,101850.31
2023-03-02T13:10:25.717Z,101862.59
2023-03-02T13:12:52.241Z,101858.06
2023-03-02T13:15:18.946Z,101859.56
2023-03-02T13:17:53.649Z,101864.25
2023-03-02T13:20:21.632Z,101858.28
2023-03-02T13:22:48.171Z,101852.47
2023-03-02T13:25:28.427Z,101850.31
2023-03-02T13:27:57.146Z,101859.31
2023-03-02T13:30:28.202Z,101849.06
2023-03-02T13:33:19.878Z,101832.63
2023-03-02T13:35:47.505Z,101839.75
2023-03-02T13:38:17.288Z,101838.06
2023-03-02T13:40:49.515Z,101835.13
2023-03-02T13:43:36.480Z,101844.22
2023-03-02T13:46:06.729Z,101845.38
2023-03-02T13:48:33.553Z,101834.06
2023-03-02T13:51:03.480Z,101828.19
2023-03-02T13:53:34.671Z,101828.13
2023-03-02T13:56:01.368Z,101829.16
2023-03-02T13:58:29.707Z,101821.22
2023-03-02T14:00:56.374Z,101817.69
2023-03-02T14:03:26.862Z,101821.66
2023-03-02T14:05:54.402Z,101819.88
2023-03-02T14:08:21.304Z,101821.69
2023-03-02T14:10:50.384Z,101809.34
2023-03-02T14:13:21.873Z,101810.41
2023-03-02T14:15:51.385Z,101810.03
2023-03-02T14:18:39.432Z,101805.69
2023-03-02T14:21:11.580Z,101811.47
2023-03-02T14:23:41.037Z,101810.69
2023-03-02T14:26:26.397Z,101795.25
2023-03-02T14:29:04.583Z,101791.84
2023-03-02T14:31:32.187Z,101792.88
2023-03-02T14:33:58.892Z,101784.88
2023-03-02T14:36:32.211Z,101782.50
2023-03-02T14:39:02.888Z,101778.00
2023-03-02T14:41:30.085Z,101772.22
2023-03-02T14:43:57.071Z,101780.34
2023-03-02T14:46:23.580Z,101779.50
2023-03-02T14:48:50.008Z,101772.69
2023-03-02T14:51:23.057Z,101771.97
2023-03-02T14:53:51.471Z,101775.81
2023-03-02T14:56:20.109Z,101773.69
2023-03-02T14:58:46.707Z,101768.47
2023-03-02T15:01:13.108Z,101778.16
2023-03-02T15:03:39.545Z,101768.06
2023-03-02T15:06:28.817Z,101767.66
2023-03-02T15:08:57.175Z,101765.25
2023-03-02T15:11:24.784Z,101776.13
2023-03-02T15:13:51.211Z,101775.19
2023-03-02T15:16:17.747Z,101781.59
2023-03-02T15:18:44.427Z,101770.69
2023-03-02T15:21:17.056Z,101780.03
2023-03-02T15:23:43.760Z,101771.78
2023-03-02T15:26:11.714Z,101777.72
2023-03-02T15:28:38.147Z,101771.78
2023-03-02T15:31:14.222Z,101772.53
2023-03-02T15:33:41.235Z,101771.47
2023-03-02T15:36:07.945Z,101770.47
2023-03-02T15:38:35.806Z,101767.59
2023-03-02T15:41:07.155Z,101773.19
2023-03-02T15:43:34.050Z,101772.06
2023-03-02T15:46:02.199Z,101777.22
2023-03-02T15:48:31.648Z,101771.59
2023-03-02T15:51:04.406Z,101770.06
2023-03-02T15:53:31.224Z,101770.94
2023-03-02T15:55:57.693Z,101766.47
2023-03-02T15:58:24.361Z,101766.69
2023-03-02T16:00:53.505Z,101770.59
2023-03-02T16:03:19.995Z,101767.50
2023-03-02T16:05:46.427Z,101772.66
2023-03-02T16:08:12.835Z,101767.56
2023-03-02T16:10:42.730Z,101760.31
2023-03-02T16:13:10.405Z,101771.72
2023-03-02T16:15:40.062Z,101765.41
2023-03-02T16:18:07.856Z,101755.66
2023-03-02T16:20:36.141Z,101763.31
2023-03-02T16:23:05.978Z,101758.88
2023-03-02T16:25:39.646Z,101755.97
2023-03-02T16:28:07.256Z,101753.28
2023-03-02T16:30:34.563Z,101760.03
2023-03-02T16:33:03.502Z,101762.53
2023-03-02T16:35:31.527Z,101754.50
2023-03-02T16:37:57.941Z,101761.91
2023-03-02T16:40:24.821Z,101761.19
2023-03-02T16:42:51.300Z,101756.44
2023-03-02T16:45:19.154Z,101758.56
2023-03-02T16:47:45.646Z,101768.75
2023-03-02T16:50:13.328Z,101763.47
2023-03-02T16:52:40.037Z,101772.09
2023-03-02T16:55:13.378Z,101766.03
2023-03-02T16:57:39.763Z,101773.75
2023-03-02T17:00:08.494Z,101775.13
2023-03-02T17:02:34.914Z,101777.22
2023-03-02T17:05:01.272Z,101782.09
2023-03-02T17:07:27.999Z,101777.22
2023-03-02T17:09:54.463Z,101786.03
2023-03-02T17:12:20.930Z,101783.91
2023-03-02T17:14:47.411Z,101774.19
2023-03-02T17:17:13.814Z,101784.34
2023-03-02T17:19:40.193Z,101786.75
2023-03-02T17:22:06.648Z,101792.75
2023-03-02T17:24:33.590Z,101791.59
2023-03-02T17:27:00.109Z,101794.31
2023-03-02T17:29:26.728Z,101790.56
2023-03-02T17:31:53.404Z,101802.50
2023-03-02T17:34:19.986Z,101800.84
2023-03-02T17:36:46.389Z,101791.47
2023-03-02T17:39:12.873Z,101785.41
2023-03-02T17:41:39.571Z,101795.13
2023-03-02T17:44:06.116Z,101792.84
2023-03-02T17:46:33.254Z,101791.19
2023-03-02T17:49:00.625Z,101802.38
2023-03-02T17:51:28.591Z,101791.47
2023-03-02T17:53:55.881Z,101804.31
2023-03-02T17:56:26.264Z,101793.97
2023-03-02T17:59:02.150Z,101803.88
2023-03-02T18:01:29.427Z,101804.81
2023-03-02T18:04:23.099Z,101805.91
2023-03-02T18:06:56.074Z,101812.38
2023-03-02T18:09:22.628Z,101811.91
2023-03-02T18:11:49.215Z,101812.50
2023-03-02T18:14:18.299Z,101810.69
2023-03-02T18:16:45.407Z,101815.22
2023-03-02T18:19:12.013Z,101807.97
2023-03-02T18:21:40.120Z,101812.00
2023-03-02T18:24:06.904Z,101820.03
2023-03-02T18:26:33.519Z,101811.03
2023-03-02T18:28:59.939Z,101819.16
2023-03-02T18:31:26.419Z,101810.56
2023-03-02T18:33:53.081Z,101811.94
2023-03-02T18:36:19.524Z,101816.75
2023-03-02T18:38:45.905Z,101815.53
2023-03-02T18:41:13.525Z,101815.66
2023-03-02T18:43:41.300Z,101818.41
2023-03-02T18:46:13.801Z,101823.56
2023-03-02T18:48:40.245Z,101822.13
2023-03-02T18:51:06.620Z,101819.00
2023-03-02T18:53:33.340Z,101818.41
2023-03-02T18:55:59.737Z,101815.06
2023-03-02T18:58:26.594Z,101816.31
2023-03-02T19:00:54.079Z,101811.47
2023-03-02T19:03:20.679Z,101809.47
2023-03-02T19:05:47.073Z,101805.41
2023-03-02T19:08:13.546Z,101806.72
2023-03-02T19:10:42.216Z,101811.63
2023-03-02T19:13:11.499Z,101812.63
2023-03-02T19:15:41.943Z,101812.59
2023-03-02T19:18:08.755Z,101805.06
2023-03-02T19:20:35.482Z,101817.66
2023-03-02T19:23:01.835Z,101808.34
2023-03-02T19:25:28.230Z,101805.31
2023-03-02T19:27:54.592Z,101806.41
2023-03-02T19:30:24.423Z,101814.88
2023-03-02T19:32:53.985Z,101808.84
2023-03-02T19:35:22.734Z,101806.03
2023-03-02T19:37:49.102Z,101814.00
2023-03-02T19:40:19.953Z,101812.22
2023-03-02T19:42:47.403Z,101815.66
2023-03-02T19:45:18.910Z,101822.69
2023-03-02T19:47:47.043Z,101820.69
2023-03-02T19:50:15.185Z,101819.38
2023-03-02T19:52:42.022Z,101817.94
2023-03-02T19:55:10.485Z,101816.03
2023-03-02T19:57:37.996Z,101823.22
2023-03-02T20:00:07.311Z,101814.81
2023-03-02T20:02:35.939Z,101821.44
2023-03-02T20:05:03.865Z,101819.28
2023-03-02T20:07:30.242Z,101818.38
2023-03-02T20:09:56.604Z,101812.66
2023-03-02T20:12:22.964Z,101831.91
2023-03-02T20:14:51.077Z,101836.66
2023-03-02T20:17:19.559Z,101839.72
2023-03-02T20:19:47.019Z,101841.25
2023-03-02T20:22:14.074Z,101839.72
2023-03-02T20:24:41.252Z,101835.16
2023-03-02T20:27:08.217Z,101838.38
2023-03-02T20:29:35.733Z,101846.38
2023-03-02T20:32:04.386Z,101843.78
2023-03-02T20:34:31.516Z,101850.53
2023-03-02T20:36:58.190Z,101850.94
2023-03-02T20:39:28.266Z,101844.91
2023-03-02T20:41:54.925Z,101845.81
2023-03-02T20:44:22.298Z,101848.22
2023-03-02T20:46:53.580Z,101838.75
2023-03-02T20:49:20.763Z,101848.00
2023-03-02T20:51:52.749Z,101849.22
2023-03-02T20:54:25.288Z,101851.38
2023-03-02T20:56:52.185Z,101844.44
2023-03-02T20:59:18.588Z,101848.22
2023-03-02T21:01:45.007Z,101853.28
2023-03-02T21:04:11.600Z,101854.94
2023-03-02T21:06:38.311Z,101843.41
2023-03-02T21:09:07.232Z,101850.72
2023-03-02T21:11:34.192Z,101847.88
2023-03-02T21:14:02.173Z,101853.16
2023-03-02T21:16:35.611Z,101851.03
2023-03-02T21:19:04.184Z,101843.25
2023-03-02T21:21:41.119Z,101833.03
2023-03-02T21:24:12.599Z,101840.09
2023-03-02T21:26:41.409Z,101838.41
2023-03-02T21:29:09.352Z,101839.13
2023-03-02T21:31:35.871Z,101831.97
2023-03-02T21:34:02.317Z,101835.59
2023-03-02T21:36:28.865Z,101850.25
2023-03-02T21:38:55.503Z,101839.34
2023-03-02T21:41:22.085Z,101849.31
2023-03-02T21:43:49.449Z,101849.94
2023-03-02T21:46:19.363Z,101843.00
2023-03-02T21:48:46.433Z,101839.56
2023-03-02T21:51:13.980Z,101836.72
2023-03-02T21:53:40.517Z,101837.66
2023-03-02T21:56:07.378Z,101838.28
2023-03-02T21:58:33.864Z,101836.91
2023-03-02T22:01:00.372Z,101833.81
2023-03-02T22:03:26.896Z,101836.03
2023-03-02T22:05:53.273Z,101826.78
2023-03-02T22:08:21.238Z,101821.25
2023-03-02T22:10:50.263Z,101818.84
2023-03-02T22:13:23.425Z,101818.56
2023-03-02T22:15:57.638Z,101822.41
2023-03-02T22:18:26.939Z,101826.63
2023-03-02T22:20:53.402Z,101823.81
2023-03-02T22:23:26.145Z,101820.44
2023-03-02T22:25:55.235Z,101830.56
2023-03-02T22:28:24.419Z,101823.63
2023-03-02T22:30:52.337Z,101827.50
2023-03-02T22:33:27.706Z,101814.25
2023-03-02T22:36:04.268Z,101817.50
2023-03-02T22:38:30.999Z,101811.13
2023-03-02T22:40:57.520Z,101810.50
2023-03-02T22:43:29.215Z,101798.78
2023-03-02T22:46:08.654Z,101794.00
2023-03-02T22:48:36.641Z,101794.00
2023-03-02T22:51:16.710Z,101799.09
2023-03-02T22:53:48.662Z,101802.28
2023-03-02T22:56:37.232Z,101800.75
2023-03-02T22:59:35.764Z,101794.25
2023-03-02T23:02:08.421Z,101794.84
2023-03-02T23:04:38.175Z,101789.53
2023-03-02T23:07:22.071Z,101777.75
2023-03-02T23:09:49.025Z,101773.97
2023-03-02T23:12:18.311Z,101772.16
2023-03-02T23:14:51.432Z,101779.25
2023-03-02T23:17:38.587Z,101780.09
2023-03-02T23:20:09.741Z,101773.50
2023-03-02T23:22:36.577Z,101772.53
2023-03-02T23:25:03.580Z,101768.59
2023-03-02T23:27:30.002Z,101762.44
2023-03-02T23:29:56.469Z,101755.50
2023-03-02T23:32:22.964Z,101761.66
2023-03-02T23:34:50.092Z,101759.78
2023-03-02T23:37:16.511Z,101763.59
2023-03-02T23:39:45.644Z,101776.84
2023-03-02T23:42:18.488Z,101779.78
2023-03-02T23:44:45.241Z,101776.56
2023-03-02T23:47:12.100Z,101780.81
2023-03-02T23:49:38.631Z,101782.84
2023-03-02T23:52:05.581Z,101780.53
2023-03-02T23:54:46.145Z,101778.16
2023-03-02T23:57:12.811Z,101787.28
2023-03-02T23:59:39.470Z,101803.97
